createdAt,value
2019-05-02T10:32:57.288Z,96472.23
2019-05-02T10:37:52.220Z,96455.70
2019-05-02T10:42:47.910Z,96450.89
2019-05-02T10:47:43.695Z,96445.81
2019-05-02T10:52:39.530Z,96435.06
2019-05-02T10:57:35.286Z,96435.23
2019-05-02T11:02:39.567Z,96424.24
2019-05-02T11:07:37.882Z,96422.50
2019-05-02T11:13:04.916Z,96411.53
2019-05-02T11:18:02.304Z,96405.02
2019-05-02T11:23:03.288Z,96396.73
2019-05-02T11:28:05.468Z,96391.65
2019-05-02T11:32:57.665Z,96381.42
2019-05-02T11:37:53.444Z,96378.05
2019-05-02T11:42:49.246Z,96371.72
2019-05-02T11:47:45.005Z,96362.28
2019-05-02T11:52:42.406Z,96370.03
2019-05-02T11:57:38.421Z,96363.88
2019-05-02T12:02:58.154Z,96362.17
2019-05-02T12:07:53.752Z,96355.52
2019-05-02T12:12:54.128Z,96350.72
2019-05-02T12:17:52.391Z,96352.56
2019-05-02T12:22:48.185Z,96347.55
2019-05-02T12:27:43.971Z,96337.31
2019-05-02T12:32:39.851Z,96340.51
2019-05-02T12:37:35.707Z,96335.99
2019-05-02T12:42:33.045Z,96333.38
2019-05-02T12:47:42.727Z,96337.55
2019-05-02T12:52:38.379Z,96328.53
2019-05-02T12:57:34.148Z,96327.80
2019-05-02T13:02:36.835Z,96321.09
2019-05-02T13:07:32.572Z,96321.38
2019-05-02T13:12:32.307Z,96314.20
2019-05-02T13:17:29.474Z,96321.66
2019-05-02T13:22:42.891Z,96315.64
2019-05-02T13:27:44.413Z,96304.67
2019-05-02T13:32:42.663Z,96302.92
2019-05-02T13:37:38.835Z,96300.16
2019-05-02T13:42:34.705Z,96310.88
2019-05-02T13:47:32.406Z,96323.09
2019-05-02T13:52:28.359Z,96349.71
2019-05-02T13:57:24.529Z,96352.70
2019-05-02T14:02:43.406Z,96344.59
2019-05-02T14:07:42.862Z,96362.45
2019-05-02T14:12:47.016Z,96369.58
2019-05-02T14:17:52.345Z,96366.53
2019-05-02T14:22:48.009Z,96364.45
2019-05-02T14:27:47.036Z,96371.01
2019-05-02T14:32:42.494Z,96367.58
2019-05-02T14:37:38.529Z,96360.89
2019-05-02T14:42:34.442Z,96358.25
2019-05-02T14:47:32.533Z,96347.52
2019-05-02T14:52:27.947Z,96342.37
2019-05-02T14:57:27.058Z,96347.24
2019-05-02T15:02:51.759Z,96365.03
2019-05-02T15:07:47.288Z,96363.11
2019-05-02T15:12:43.137Z,96337.98
2019-05-02T15:17:39.011Z,96341.12
2019-05-02T15:22:37.478Z,96337.80
2019-05-02T15:27:41.065Z,96341.94
2019-05-02T15:32:42.836Z,96333.17
2019-05-02T15:37:36.537Z,96338.28
2019-05-02T15:42:32.455Z,96325.42
2019-05-02T15:47:28.416Z,96320.31
2019-05-02T15:52:28.683Z,96319.29
2019-05-02T15:57:25.052Z,96329.98
2019-05-02T16:02:26.458Z,96336.27
2019-05-02T16:07:22.498Z,96331.88
2019-05-02T16:12:18.622Z,96330.39
2019-05-02T16:17:17.686Z,96328.26
2019-05-02T16:22:17.034Z,96338.98
2019-05-02T16:27:16.402Z,96341.28
2019-05-02T16:32:30.872Z,96338.94
2019-05-02T16:37:27.801Z,96328.77
2019-05-02T16:42:23.609Z,96341.78
2019-05-02T16:47:21.970Z,96343.23
2019-05-02T16:52:17.992Z,96337.59
2019-05-02T16:57:34.843Z,96340.06
2019-05-02T17:02:29.651Z,96340.28
2019-05-02T17:07:46.171Z,96337.07
2019-05-02T17:12:42.856Z,96339.50
2019-05-02T17:17:39.781Z,96341.59
2019-05-02T17:22:35.558Z,96350.93
2019-05-02T17:27:32.518Z,96350.44
2019-05-02T17:32:28.882Z,96345.29
2019-05-02T17:37:24.930Z,96344.93
2019-05-02T17:42:22.286Z,96340.73
2019-05-02T17:47:18.721Z,96348.52
2019-05-02T17:52:25.994Z,96355.55
2019-05-02T18:02:18.042Z,96348.67
2019-05-02T18:07:14.013Z,96347.77
2019-05-02T18:12:12.705Z,96340.11
2019-05-02T18:17:07.526Z,96344.31
2019-05-02T18:22:08.289Z,96349.25
2019-05-02T18:27:02.154Z,96343.44
2019-05-02T18:31:58.154Z,96343.23
2019-05-02T18:37:00.731Z,96347.95
2019-05-02T18:41:51.974Z,96351.42
2019-05-02T18:46:48.097Z,96353.28
2019-05-02T18:51:48.269Z,96366.25
2019-05-02T18:56:49.523Z,96375.41
2019-05-02T19:01:52.657Z,96380.13
2019-05-02T19:06:48.880Z,96399.84
2019-05-02T19:11:45.046Z,96418.67
2019-05-02T19:16:42.602Z,96451.48
2019-05-02T19:21:39.558Z,96469.49
2019-05-02T19:26:35.562Z,96481.59
2019-05-02T19:31:46.185Z,96479.30
2019-05-02T19:36:52.646Z,96475.98
2019-05-02T19:42:17.005Z,96463.14
2019-05-02T19:47:31.731Z,96484.03
2019-05-02T19:53:04.336Z,96487.63
2019-05-02T19:58:26.489Z,96488.56
2019-05-02T20:04:04.397Z,96500.88
2019-05-02T20:09:04.822Z,96504.27
2019-05-02T20:14:12.574Z,96507.06
2019-05-02T20:19:17.414Z,96507.48
2019-05-02T20:24:22.539Z,96500.60
2019-05-02T20:29:39.237Z,96499.53
2019-05-02T20:35:06.476Z,96499.34
2019-05-02T20:41:24.365Z,96499.50
2019-05-02T21:04:43.343Z,96484.73
2019-05-02T21:10:46.419Z,96481.28
2019-05-02T21:15:53.766Z,96478.50
2019-05-02T21:20:54.455Z,96481.95
2019-05-02T21:25:58.131Z,96481.99
2019-05-02T21:30:56.813Z,96486.81
2019-05-02T21:35:58.938Z,96487.48
2019-05-02T21:40:53.162Z,96487.56
2019-05-02T21:45:53.707Z,96490.20
2019-05-02T21:50:58.289Z,96494.22
2019-05-02T21:56:14.263Z,96495.08
2019-05-02T22:01:12.949Z,96493.22
2019-05-02T22:06:12.383Z,96499.67
2019-05-02T22:11:09.382Z,96498.88
2019-05-02T22:16:12.765Z,96493.19
2019-05-02T22:21:08.218Z,96487.87
2019-05-02T22:26:04.058Z,96490.62
2019-05-02T22:31:00.029Z,96505.09
2019-05-02T22:35:55.983Z,96493.88
2019-05-02T22:40:55.564Z,96495.11
2019-05-02T22:45:51.310Z,96489.11
2019-05-02T22:50:49.576Z,96484.66
2019-05-02T22:55:45.455Z,96484.61
2019-05-02T23:00:41.675Z,96476.08
2019-05-02T23:05:37.651Z,96481.75
2019-05-02T23:10:35.329Z,96479.52
2019-05-02T23:15:32.118Z,96475.09
2019-05-02T23:20:28.048Z,96480.27
2019-05-02T23:25:42.566Z,96480.80
2019-05-02T23:30:42.337Z,96476.34
2019-05-02T23:35:38.405Z,96470.45
2019-05-02T23:40:34.378Z,96470.59
2019-05-02T23:45:31.613Z,96480.78
2019-05-02T23:50:27.775Z,96476.58
2019-05-02T23:55:23.755Z,96476.66
